Time;durP1;ratioP1;P1;durP2;ratioP2;P2;SDS_P1;SDS_P2;PMS_P1;PMS_P2;Temp;Humidity;BMP_temperature;BMP_pressure;BME280_temperature;BME280_humidity;BME280_pressure;Samples;Min_cycle;Max_cycle;Signal;HPM_P1;HPM_P2
2022/04/21 00:01:09;;;;;;;6.22;3.95;;;11.10;85.20;;;;;;5104454;28;20458;-51
2022/04/21 00:03:54;;;;;;;5.40;4.40;;;11.10;85.10;;;;;;5112228;28;20449;-53
2022/04/21 00:06:38;;;;;;;12.47;6.80;;;11.00;85.50;;;;;;5098006;28;20312;-50
2022/04/21 00:09:22;;;;;;;8.68;5.60;;;11.00;85.70;;;;;;5112689;28;20038;-50
2022/04/21 00:12:07;;;;;;;6.23;4.33;;;10.90;86.00;;;;;;5108719;28;20042;-55
2022/04/21 00:14:51;;;;;;;8.13;3.92;;;10.90;86.10;;;;;;5113717;28;20103;-50
2022/04/21 00:17:35;;;;;;;9.95;4.70;;;10.90;86.30;;;;;;5111283;28;20047;-48
2022/04/21 00:20:19;;;;;;;6.33;4.30;;;10.90;86.50;;;;;;5093535;28;20050;-50
2022/04/21 00:26:07;;;;;;;8.32;4.97;;;10.80;87.00;;;;;;5127108;27;20054;-50
2022/04/21 00:28:51;;;;;;;5.22;3.95;;;10.80;87.30;;;;;;5133869;27;20371;-53
2022/04/21 00:31:35;;;;;;;4.57;3.97;;;10.80;87.60;;;;;;5078721;28;20059;-50
2022/04/21 00:34:19;;;;;;;6.10;4.70;;;10.90;87.70;;;;;;5094063;28;20523;-47
2022/04/21 00:37:03;;;;;;;7.10;4.30;;;10.90;87.80;;;;;;5101245;28;20576;-48
2022/04/21 00:39:50;;;;;;;6.18;4.22;;;10.90;87.90;;;;;;5102206;28;20039;-48
2022/04/21 00:42:34;;;;;;;6.53;4.63;;;10.90;88.30;;;;;;5115739;27;20046;-49
2022/04/21 00:45:18;;;;;;;5.57;4.13;;;10.90;88.70;;;;;;5118348;27;20167;-52
2022/04/21 00:48:05;;;;;;;7.35;4.50;;;10.80;88.70;;;;;;5094069;28;20038;-48
2022/04/21 00:50:49;;;;;;;7.22;5.00;;;10.70;89.10;;;;;;5110915;28;20510;-50
2022/04/21 00:53:34;;;;;;;8.30;4.55;;;10.70;89.30;;;;;;5112725;28;20162;-52
2022/04/21 00:56:18;;;;;;;10.90;4.90;;;10.60;89.70;;;;;;5092197;28;20077;-53
2022/04/21 00:59:03;;;;;;;7.70;4.50;;;10.60;90.00;;;;;;5104716;28;20483;-52
2022/04/21 01:04:55;;;;;;;7.32;4.60;;;10.50;90.20;;;;;;5112571;28;20070;-53
2022/04/21 01:07:39;;;;;;;8.40;5.68;;;10.60;89.80;;;;;;5112541;28;20398;-48
2022/04/21 01:10:26;;;;;;;6.70;5.60;;;10.60;90.10;;;;;;5106777;28;20050;-53
2022/04/21 01:13:12;;;;;;;7.13;5.03;;;10.60;90.20;;;;;;5097349;28;20403;-52
2022/04/21 01:15:56;;;;;;;9.15;4.88;;;10.50;90.20;;;;;;5097181;28;20058;-50
2022/04/21 01:18:41;;;;;;;8.45;4.70;;;10.50;89.70;;;;;;5113802;28;20038;-50
2022/04/21 01:21:25;;;;;;;8.57;4.47;;;10.50;89.90;;;;;;5099130;28;20043;-52
2022/04/21 01:24:09;;;;;;;7.53;4.35;;;10.50;89.50;;;;;;5114741;28;20089;-50
2022/04/21 01:26:55;;;;;;;5.32;4.32;;;10.50;89.50;;;;;;5101664;28;20459;-49
2022/04/21 01:29:39;;;;;;;5.32;3.97;;;10.50;89.90;;;;;;5095768;28;20062;-48
2022/04/21 01:32:23;;;;;;;5.85;4.55;;;10.50;89.40;;;;;;5115131;28;20734;-50
2022/04/21 01:35:08;;;;;;;7.20;4.50;;;10.50;89.30;;;;;;5115884;28;20068;-52
2022/04/21 01:41:11;;;;;;;6.38;4.43;;;10.50;88.90;;;;;;5107288;28;20111;-48
2022/04/21 01:43:55;;;;;;;6.72;4.32;;;10.50;88.70;;;;;;5115215;28;20030;-49
2022/04/21 01:46:39;;;;;;;6.50;4.43;;;10.50;88.90;;;;;;5115453;28;20027;-51
2022/04/21 01:49:24;;;;;;;5.40;4.57;;;10.40;89.00;;;;;;5095579;28;20042;-48
2022/04/21 01:52:08;;;;;;;7.20;4.40;;;10.40;89.00;;;;;;5109416;28;20035;-51
2022/04/21 01:54:52;;;;;;;5.80;4.60;;;10.40;89.10;;;;;;5095965;28;20047;-51
2022/04/21 01:57:36;;;;;;;9.37;5.37;;;10.40;88.90;;;;;;5114000;28;20097;-48
2022/04/21 02:00:21;;;;;;;7.47;4.13;;;10.40;89.00;;;;;;5114750;28;20042;-51
2022/04/21 02:03:05;;;;;;;7.50;4.03;;;10.40;89.00;;;;;;5115599;28;20566;-48
2022/04/21 02:05:49;;;;;;;10.75;4.18;;;10.40;88.60;;;;;;5112671;28;20063;-48
2022/04/21 02:08:33;;;;;;;5.22;3.70;;;10.50;88.80;;;;;;5101341;27;20039;-48
2022/04/21 02:11:17;;;;;;;6.15;4.10;;;10.40;88.70;;;;;;5107792;28;20039;-51
2022/04/21 02:14:01;;;;;;;6.75;4.47;;;10.40;88.60;;;;;;5095897;28;20093;-49
2022/04/21 02:16:45;;;;;;;6.95;4.47;;;10.30;88.60;;;;;;5096255;28;20084;-49
2022/04/21 02:19:29;;;;;;;8.30;4.05;;;10.30;88.60;;;;;;5103770;28;20108;-51
2022/04/21 02:22:13;;;;;;;6.60;4.13;;;10.30;88.80;;;;;;5095953;28;20070;-50
2022/04/21 02:24:57;;;;;;;12.50;5.10;;;10.30;88.70;;;;;;5105638;28;20046;-51
2022/04/21 02:27:44;;;;;;;5.25;4.30;;;10.30;88.80;;;;;;5115320;28;20065;-51
2022/04/21 02:30:29;;;;;;;7.55;4.43;;;10.30;88.70;;;;;;5096054;28;20054;-52
2022/04/21 02:33:13;;;;;;;8.20;3.88;;;10.30;88.90;;;;;;5111619;28;20088;-49
2022/04/21 02:35:57;;;;;;;6.87;4.17;;;10.30;89.10;;;;;;5113921;28;20091;-49
2022/04/21 02:38:41;;;;;;;7.37;4.67;;;10.30;88.70;;;;;;5096951;28;20038;-53
2022/04/21 02:41:26;;;;;;;7.82;4.22;;;10.30;88.60;;;;;;5108418;27;20092;-46
2022/04/21 02:44:10;;;;;;;;;;;10.30;88.60;;;;;;5095538;28;20039;-49
2022/04/21 02:46:54;;;;;;;6.05;3.70;;;10.30;88.40;;;;;;5095007;28;19977;-49
2022/04/21 02:49:40;;;;;;;7.53;5.28;;;10.20;88.70;;;;;;5103340;28;20051;-47
2022/04/21 02:52:25;;;;;;;6.45;4.05;;;10.20;88.70;;;;;;5095688;28;20407;-49
2022/04/21 02:58:12;;;;;;;6.65;4.55;;;10.00;88.70;;;;;;5105730;28;20122;-50
2022/04/21 03:00:56;;;;;;;6.07;4.23;;;10.00;89.10;;;;;;5113869;28;20030;-52
2022/04/21 03:03:40;;;;;;;7.00;4.00;;;10.00;89.00;;;;;;5114631;28;20038;-50
2022/04/21 03:06:25;;;;;;;8.02;5.38;;;10.10;88.80;;;;;;5110608;28;20089;-51
2022/04/21 03:09:09;;;;;;;9.10;4.53;;;10.00;89.10;;;;;;5119675;27;20178;-50
2022/04/21 03:11:53;;;;;;;7.20;4.90;;;10.10;89.30;;;;;;5114886;28;20089;-48
2022/04/21 03:14:38;;;;;;;6.30;3.92;;;10.10;89.30;;;;;;5113977;28;20034;-49
2022/04/21 03:17:23;;;;;;;7.93;4.03;;;10.10;89.40;;;;;;5097169;28;20043;-48
2022/04/21 03:20:07;;;;;;;;;;;10.10;89.20;;;;;;5102489;28;20047;-50
2022/04/21 03:26:17;;;;;;;4.15;3.35;;;10.00;89.10;;;;;;5067786;28;20070;-47
2022/04/21 03:29:01;;;;;;;6.45;4.00;;;10.00;88.90;;;;;;5094840;28;20038;-49
2022/04/21 03:31:45;;;;;;;5.67;4.10;;;10.00;89.10;;;;;;5115015;28;20065;-49
2022/04/21 03:34:29;;;;;;;8.40;4.80;;;10.00;89.10;;;;;;5109513;28;20108;-51
2022/04/21 03:37:15;;;;;;;4.63;3.97;;;10.00;89.30;;;;;;5112070;28;20325;-53
2022/04/21 03:40:00;;;;;;;6.88;4.93;;;10.00;89.50;;;;;;5112386;28;20137;-50
2022/04/21 03:42:44;;;;;;;8.43;4.70;;;9.90;90.00;;;;;;5118958;27;20073;-49
2022/04/21 03:45:29;;;;;;;5.97;4.37;;;10.00;90.00;;;;;;5106251;28;20075;-50
2022/04/21 03:48:13;;;;;;;7.47;4.40;;;10.00;89.50;;;;;;5095453;28;20510;-46
2022/04/21 03:50:57;;;;;;;5.95;4.50;;;10.10;89.50;;;;;;5105817;28;20128;-49
2022/04/21 03:53:41;;;;;;;7.15;4.40;;;10.10;89.10;;;;;;5094791;28;20039;-46
2022/04/21 03:56:27;;;;;;;6.25;4.13;;;10.00;89.30;;;;;;5108526;27;20453;-50
2022/04/21 03:59:11;;;;;;;6.88;4.45;;;9.90;89.20;;;;;;5117394;27;20124;-48
2022/04/21 04:02:02;;;;;;;5.80;4.30;;;10.00;89.40;;;;;;5113210;28;20451;-47
2022/04/21 04:04:46;;;;;;;6.60;4.18;;;10.00;89.20;;;;;;5094613;28;20074;-48
2022/04/21 04:10:52;;;;;;;8.90;5.30;;;9.90;89.60;;;;;;5112023;28;20051;-48
2022/04/21 04:13:37;;;;;;;7.25;4.32;;;10.00;90.10;;;;;;5096446;28;20035;-49
2022/04/21 04:16:21;;;;;;;11.02;4.53;;;9.90;90.20;;;;;;5107702;28;20030;-53
2022/04/21 04:19:08;;;;;;;5.67;3.93;;;10.10;90.10;;;;;;5113984;28;20608;-52
2022/04/21 04:21:52;;;;;;;6.97;4.07;;;9.90;90.30;;;;;;5095293;28;20042;-54
2022/04/21 04:24:36;;;;;;;5.23;4.10;;;9.90;90.60;;;;;;5112674;28;20089;-52
2022/04/21 04:27:21;;;;;;;6.60;4.43;;;9.90;90.60;;;;;;5083763;28;20047;-48
2022/04/21 04:30:08;;;;;;;11.32;4.63;;;9.90;90.80;;;;;;5093263;28;20419;-49
2022/04/21 04:32:53;;;;;;;7.80;4.32;;;9.90;90.70;;;;;;5111522;28;20035;-50
2022/04/21 04:35:37;;;;;;;7.70;4.32;;;9.90;91.00;;;;;;5113030;28;20039;-49
2022/04/21 04:38:21;;;;;;;8.13;4.90;;;9.80;91.10;;;;;;5110868;28;20096;-48
2022/04/21 04:44:08;;;;;;;6.95;5.00;;;9.80;90.80;;;;;;5113724;28;20062;-51
2022/04/21 04:46:52;;;;;;;7.22;4.38;;;9.60;91.00;;;;;;5108018;28;20042;-54
2022/04/21 04:49:37;;;;;;;6.57;5.07;;;9.60;91.00;;;;;;5094579;28;20484;-53
2022/04/21 04:52:21;;;;;;;8.15;4.72;;;9.60;91.00;;;;;;5092465;28;20141;-54
2022/04/21 04:55:11;;;;;;;10.70;4.87;;;9.50;91.00;;;;;;5095179;28;20047;-50
2022/04/21 04:57:56;;;;;;;6.93;4.40;;;9.50;91.20;;;;;;5098832;28;20089;-51
2022/04/21 05:00:40;;;;;;;9.90;5.60;;;9.40;91.40;;;;;;5097430;28;20081;-49
2022/04/21 05:03:24;;;;;;;9.25;5.10;;;9.40;91.60;;;;;;5101932;28;20493;-49
2022/04/21 05:06:08;;;;;;;8.48;4.63;;;9.40;91.70;;;;;;5111198;28;20036;-48
2022/04/21 05:08:54;;;;;;;7.20;4.90;;;9.50;91.50;;;;;;5111937;28;20054;-52
2022/04/21 05:11:39;;;;;;;10.38;4.70;;;9.50;91.50;;;;;;5111070;28;20443;-50
2022/04/21 05:14:24;;;;;;;8.00;4.60;;;9.60;91.20;;;;;;5097767;28;20044;-50
2022/04/21 05:17:08;;;;;;;6.47;4.90;;;9.60;91.30;;;;;;5107945;28;20053;-48
2022/04/21 05:19:53;;;;;;;8.60;5.05;;;9.60;91.40;;;;;;5106793;28;20059;-50
2022/04/21 05:22:39;;;;;;;9.25;5.65;;;9.60;91.50;;;;;;5106506;28;20034;-51
2022/04/21 05:25:27;;;;;;;9.13;4.63;;;9.70;91.40;;;;;;5093648;28;20049;-49
2022/04/21 05:28:12;;;;;;;7.88;5.35;;;9.70;91.40;;;;;;5098739;28;20042;-48
2022/04/21 05:30:58;;;;;;;;;;;9.60;91.50;;;;;;5113999;27;20062;-54
2022/04/21 05:33:43;;;;;;;8.27;4.97;;;9.50;91.70;;;;;;5092426;28;19919;-50
2022/04/21 05:36:27;;;;;;;8.48;4.97;;;9.60;91.60;;;;;;5121147;28;20061;-55
2022/04/21 05:39:11;;;;;;;12.85;5.50;;;9.60;91.60;;;;;;5133358;28;20038;-47
2022/04/21 05:41:57;;;;;;;11.68;5.22;;;9.60;92.10;;;;;;5120994;28;20060;-52
2022/04/21 05:44:42;;;;;;;16.88;5.20;;;9.60;92.10;;;;;;5092798;28;20067;-48
2022/04/21 05:47:27;;;;;;;9.82;4.82;;;9.70;92.10;;;;;;5110711;27;20054;-49
2022/04/21 05:50:12;;;;;;;10.97;5.30;;;9.80;91.90;;;;;;5132817;28;20052;-47
2022/04/21 05:52:57;;;;;;;;;;;9.70;91.80;;;;;;5133649;28;20049;-53
2022/04/21 05:55:41;;;;;;;;;;;9.60;92.10;;;;;;5133335;27;19919;-47
2022/04/21 05:58:26;;;;;;;10.82;6.15;;;9.80;91.90;;;;;;5133604;27;20450;-51
2022/04/21 06:01:10;;;;;;;13.40;5.72;;;9.90;91.80;;;;;;5078908;28;20403;-47
2022/04/21 06:03:54;;;;;;;11.00;6.13;;;9.80;91.90;;;;;;5095602;28;20118;-48
2022/04/21 06:06:39;;;;;;;7.93;5.70;;;9.80;92.20;;;;;;5100586;28;20035;-48
2022/04/21 06:09:23;;;;;;;10.75;6.13;;;9.90;92.10;;;;;;5116338;27;20442;-51
2022/04/21 06:12:09;;;;;;;13.03;5.33;;;9.70;92.20;;;;;;5118564;27;20035;-51
2022/04/21 06:14:53;;;;;;;10.52;5.90;;;9.50;92.70;;;;;;5107532;28;20035;-51
2022/04/21 06:17:37;;;;;;;8.87;5.17;;;9.50;93.00;;;;;;5119056;27;20076;-52
2022/04/21 06:20:21;;;;;;;7.70;5.27;;;9.50;92.90;;;;;;5117826;27;20038;-49
2022/04/21 06:23:06;;;;;;;9.03;5.83;;;9.50;93.20;;;;;;5110270;28;20046;-52
2022/04/21 06:25:58;;;;;;;8.63;5.50;;;9.50;93.80;;;;;;5129196;27;20268;-50
2022/04/21 06:28:42;;;;;;;6.88;5.00;;;9.40;93.30;;;;;;5124614;27;20030;-48
2022/04/21 06:31:27;;;;;;;7.38;5.47;;;9.50;93.40;;;;;;5136427;27;20052;-48
2022/04/21 06:34:11;;;;;;;10.77;5.83;;;9.40;93.60;;;;;;5137608;27;20084;-48
2022/04/21 06:36:55;;;;;;;8.05;5.20;;;9.50;93.40;;;;;;5135598;27;20087;-50
2022/04/21 06:39:39;;;;;;;9.10;5.77;;;9.60;93.70;;;;;;5135949;27;20041;-49
2022/04/21 06:42:23;;;;;;;12.07;6.03;;;9.60;93.70;;;;;;5125422;27;20707;-50
2022/04/21 06:48:13;;;;;;;15.27;6.18;;;9.60;93.80;;;;;;5114614;28;20046;-51
2022/04/21 06:50:57;;;;;;;10.68;6.00;;;9.60;93.90;;;;;;5104144;28;20107;-51
2022/04/21 06:53:42;;;;;;;14.07;6.40;;;9.60;94.20;;;;;;5102306;28;20047;-50
2022/04/21 06:56:27;;;;;;;18.80;6.28;;;9.60;94.10;;;;;;5115073;28;20556;-50
2022/04/21 06:59:11;;;;;;;;;;;9.60;94.30;;;;;;5087759;28;20056;-50
2022/04/21 07:01:55;;;;;;;15.70;7.22;;;9.50;94.60;;;;;;5095209;28;19919;-49
2022/04/21 07:04:39;;;;;;;12.10;5.97;;;9.40;94.80;;;;;;5111205;28;20050;-52
2022/04/21 07:07:23;;;;;;;10.57;5.60;;;9.60;95.00;;;;;;5100375;28;20039;-52
2022/04/21 07:10:09;;;;;;;10.38;6.20;;;9.60;94.70;;;;;;5089345;28;20125;-52
2022/04/21 07:12:53;;;;;;;12.00;6.22;;;9.30;95.10;;;;;;5114392;28;20071;-49
2022/04/21 07:15:38;;;;;;;8.15;5.72;;;9.20;95.50;;;;;;5109488;28;20054;-52
2022/04/21 07:18:22;;;;;;;12.02;6.32;;;9.20;95.90;;;;;;5097249;28;20045;-51
2022/04/21 07:21:09;;;;;;;9.70;6.35;;;9.20;96.00;;;;;;5114504;28;20576;-52
2022/04/21 07:23:53;;;;;;;11.30;6.00;;;9.20;96.00;;;;;;5105987;28;20031;-51
2022/04/21 07:26:38;;;;;;;10.77;6.20;;;9.30;96.10;;;;;;5113866;28;20526;-49
2022/04/21 07:29:22;;;;;;;;;;;9.20;96.20;;;;;;5113408;28;20541;-53
2022/04/21 07:32:07;;;;;;;9.82;6.40;;;9.30;96.20;;;;;;5114164;28;19919;-50
2022/04/21 07:34:51;;;;;;;9.55;6.78;;;9.30;96.30;;;;;;5113952;28;20038;-54
2022/04/21 07:37:37;;;;;;;10.97;6.67;;;9.20;96.60;;;;;;5113445;28;20066;-50
2022/04/21 07:40:23;;;;;;;15.27;6.55;;;9.10;96.70;;;;;;5114157;28;20097;-52
2022/04/21 07:43:08;;;;;;;14.30;6.90;;;9.10;96.80;;;;;;5118841;27;20038;-52
2022/04/21 07:45:52;;;;;;;11.82;6.68;;;9.10;97.10;;;;;;5098866;28;20715;-50
2022/04/21 07:51:40;;;;;;;12.93;6.97;;;9.20;97.30;;;;;;5102180;28;20031;-51
2022/04/21 07:54:24;;;;;;;13.45;7.03;;;9.50;97.10;;;;;;5093837;28;20043;-52
2022/04/21 07:57:08;;;;;;;11.18;6.97;;;9.60;96.80;;;;;;5110250;28;20043;-49
2022/04/21 07:59:52;;;;;;;13.05;6.85;;;9.60;96.60;;;;;;5114910;28;20046;-50
2022/04/21 08:02:39;;;;;;;12.07;7.60;;;9.60;96.60;;;;;;5078975;28;20035;-50
2022/04/21 08:05:23;;;;;;;17.42;7.35;;;9.50;96.80;;;;;;5078597;28;20042;-52
2022/04/21 08:08:11;;;;;;;11.75;6.97;;;9.50;97.10;;;;;;5093822;28;20066;-47
2022/04/21 08:10:55;;;;;;;11.30;6.35;;;9.50;97.20;;;;;;5107773;28;20548;-47
2022/04/21 08:13:39;;;;;;;15.00;7.18;;;9.50;97.30;;;;;;5112775;28;20395;-48
2022/04/21 08:16:24;;;;;;;12.90;7.07;;;9.40;97.40;;;;;;5113050;28;20077;-49
2022/04/21 08:19:08;;;;;;;11.73;7.38;;;9.70;99.10;;;;;;5114043;28;20043;-49
2022/04/21 08:21:52;;;;;;;10.93;7.07;;;10.00;98.40;;;;;;5100419;28;20039;-51
2022/04/21 08:33:59;;;;;;;13.13;8.30;;;10.70;96.60;;;;;;5113191;28;20022;-49
2022/04/21 08:36:43;;;;;;;9.95;6.85;;;10.90;97.30;;;;;;5106881;28;20038;-47
2022/04/21 08:39:27;;;;;;;10.60;7.10;;;11.00;95.60;;;;;;5094126;28;20526;-50
2022/04/21 08:42:14;;;;;;;9.90;7.00;;;11.10;96.70;;;;;;5110952;27;20050;-49
2022/04/21 08:44:58;;;;;;;14.00;7.75;;;11.00;95.40;;;;;;5115316;27;20813;-50
2022/04/21 08:47:46;;;;;;;11.05;7.00;;;11.00;95.60;;;;;;5099985;28;20051;-47
2022/04/21 08:50:31;;;;;;;14.80;7.65;;;10.90;96.00;;;;;;5118738;27;20765;-49
2022/04/21 08:53:24;;;;;;;12.73;7.30;;;10.90;95.90;;;;;;5133567;27;20113;-48
2022/04/21 08:56:10;;;;;;;12.55;7.03;;;11.00;96.20;;;;;;5106958;28;20082;-49
2022/04/21 08:58:54;;;;;;;11.88;7.30;;;10.90;95.90;;;;;;5109938;28;20034;-55
2022/04/21 09:01:39;;;;;;;13.75;7.18;;;11.00;96.00;;;;;;5103027;28;20038;-50
2022/04/21 09:04:22;;;;;;;13.15;7.53;;;11.00;96.40;;;;;;5103330;28;20043;-50
2022/04/21 09:07:21;;;;;;;10.60;7.10;;;11.10;96.20;;;;;;5093008;28;20403;-51
2022/04/21 09:10:11;;;;;;;11.55;7.20;;;11.00;95.90;;;;;;5102515;28;20047;-50
2022/04/21 09:12:58;;;;;;;15.60;8.48;;;11.20;96.20;;;;;;5114504;28;20030;-52
2022/04/21 09:15:45;;;;;;;14.73;8.18;;;11.30;95.20;;;;;;5077404;28;20063;-52
2022/04/21 09:18:45;;;;;;;11.77;8.18;;;11.30;95.60;;;;;;5092674;28;20039;-48
2022/04/21 09:21:37;;;;;;;14.68;8.57;;;11.40;95.60;;;;;;5092549;28;20039;-48
2022/04/21 09:24:23;;;;;;;10.77;7.50;;;11.60;95.20;;;;;;5095437;28;20043;-50
2022/04/21 09:27:08;;;;;;;15.40;8.10;;;11.60;95.00;;;;;;5112811;28;20074;-52
2022/04/21 09:29:56;;;;;;;14.35;8.05;;;11.60;94.90;;;;;;5106456;28;20062;-47
2022/04/21 09:32:54;;;;;;;14.95;8.40;;;11.40;95.30;;;;;;5091967;28;20043;-50
2022/04/21 09:35:40;;;;;;;12.98;8.02;;;11.40;95.50;;;;;;5094183;28;20031;-48
2022/04/21 09:38:25;;;;;;;16.92;8.73;;;11.60;95.10;;;;;;5082191;28;20094;-50
2022/04/21 09:41:13;;;;;;;11.48;7.95;;;11.70;94.00;;;;;;5112722;28;20054;-49
2022/04/21 09:46:07;;;;;;;9.70;7.43;;;11.60;95.20;;;;;;5084848;28;20034;-50
2022/04/21 09:47:13;;;;;;;15.02;8.80;;;11.80;95.20;;;;;;5096330;28;20077;-53
2022/04/21 09:50:09;;;;;;;12.65;8.15;;;11.70;94.30;;;;;;5103796;28;20548;-49
2022/04/21 09:52:54;;;;;;;11.80;8.57;;;11.50;95.80;;;;;;5100378;28;20088;-48
2022/04/21 09:55:39;;;;;;;17.17;8.13;;;11.70;95.10;;;;;;5096282;28;20035;-49
2022/04/21 09:58:23;;;;;;;14.20;8.93;;;11.90;94.80;;;;;;5110246;27;20035;-48
2022/04/21 10:01:08;;;;;;;15.87;9.57;;;12.10;94.50;;;;;;5100534;27;20106;-50
2022/04/21 10:03:52;;;;;;;16.23;10.02;;;12.30;94.30;;;;;;5106632;28;20039;-47
2022/04/21 10:06:41;;;;;;;19.00;9.75;;;12.50;93.40;;;;;;5107368;28;20050;-49
2022/04/21 10:09:27;;;;;;;15.52;10.90;;;12.50;93.30;;;;;;5115624;28;20076;-51
2022/04/21 10:12:11;;;;;;;17.00;10.77;;;12.60;94.00;;;;;;5110706;28;20069;-46
2022/04/21 10:14:55;;;;;;;17.07;11.80;;;12.60;93.50;;;;;;5095298;28;20027;-49
2022/04/21 10:17:40;;;;;;;15.48;10.07;;;12.80;93.20;;;;;;5097487;28;20031;-50
2022/04/21 10:20:28;;;;;;;15.13;10.05;;;12.90;93.00;;;;;;5094926;28;20392;-49
2022/04/21 10:23:17;;;;;;;12.52;10.13;;;13.10;92.90;;;;;;5115857;28;20499;-49
2022/04/21 10:26:03;;;;;;;15.18;10.02;;;13.00;92.80;;;;;;5101915;28;20511;-50
2022/04/21 10:28:50;;;;;;;15.52;10.90;;;13.00;93.40;;;;;;5079359;28;20101;-55
2022/04/21 10:31:35;;;;;;;11.60;9.77;;;13.00;93.00;;;;;;5111220;28;20035;-47
2022/04/21 10:34:32;;;;;;;14.05;9.82;;;13.10;93.20;;;;;;5107419;28;20088;-52
2022/04/21 10:37:21;;;;;;;14.55;10.18;;;13.20;93.30;;;;;;5095300;28;20395;-52
2022/04/21 10:40:09;;;;;;;12.93;9.77;;;13.20;93.30;;;;;;5109815;28;20042;-52
2022/04/21 10:42:58;;;;;;;11.32;9.50;;;13.20;93.40;;;;;;5129477;27;20038;-47
2022/04/21 10:45:42;;;;;;;15.43;9.82;;;13.30;92.90;;;;;;5115739;27;20047;-50
2022/04/21 10:48:43;;;;;;;20.65;10.80;;;13.10;93.70;;;;;;5113877;28;20161;-53
2022/04/21 10:57:50;;;;;;;13.85;9.27;;;13.10;93.60;;;;;;5111625;28;20507;-52
2022/04/21 11:00:35;;;;;;;18.92;10.02;;;13.20;93.70;;;;;;5096976;27;20574;-46
2022/04/21 11:03:25;;;;;;;14.30;9.52;;;13.30;94.00;;;;;;5127553;27;20486;-52
2022/04/21 11:06:15;;;;;;;14.38;10.77;;;13.40;93.30;;;;;;5115272;28;20034;-50
2022/04/21 11:09:02;;;;;;;11.77;9.98;;;13.40;93.70;;;;;;5112696;28;20034;-54
2022/04/21 11:11:47;;;;;;;23.05;11.80;;;13.20;93.90;;;;;;5115566;28;20498;-50
2022/04/21 11:14:34;;;;;;;17.02;11.73;;;13.00;94.10;;;;;;5083789;28;20042;-52
2022/04/21 11:17:18;;;;;;;16.55;12.10;;;12.90;94.40;;;;;;5079279;28;20104;-48
2022/04/21 11:20:22;;;;;;;17.30;11.52;;;12.70;94.80;;;;;;5094242;28;20461;-52
2022/04/21 11:23:23;;;;;;;21.10;11.88;;;12.50;95.40;;;;;;5094273;28;20592;-51
2022/04/21 11:26:08;;;;;;;19.17;12.57;;;12.20;96.10;;;;;;5114433;28;20135;-47
2022/04/21 11:28:52;;;;;;;32.35;13.80;;;12.20;96.50;;;;;;5109276;28;20082;-49
2022/04/21 11:31:39;;;;;;;27.87;12.40;;;12.10;96.80;;;;;;5095154;28;20460;-53
2022/04/21 11:34:25;;;;;;;24.30;12.88;;;12.10;97.20;;;;;;5079953;28;20119;-52
2022/04/21 11:37:09;;;;;;;18.70;13.75;;;12.10;97.50;;;;;;5100517;28;20659;-51
2022/04/21 11:39:53;;;;;;;19.05;14.18;;;11.90;97.90;;;;;;5118021;27;20081;-52
2022/04/21 11:42:38;;;;;;;21.33;13.63;;;11.70;98.70;;;;;;5133490;27;20038;-48
2022/04/21 11:45:27;;;;;;;27.58;15.00;;;11.70;99.20;;;;;;5133962;27;20031;-53
2022/04/21 11:48:14;;;;;;;19.10;13.48;;;11.70;99.10;;;;;;5092605;28;20530;-51
2022/04/21 11:50:59;;;;;;;19.15;13.40;;;11.70;99.10;;;;;;5097777;28;20654;-54
2022/04/21 11:53:43;;;;;;;23.10;13.70;;;11.60;99.20;;;;;;5119198;28;20030;-49
2022/04/21 11:56:27;;;;;;;21.23;13.57;;;11.60;99.40;;;;;;5107402;28;20031;-51
2022/04/21 11:59:12;;;;;;;22.20;14.40;;;11.40;99.80;;;;;;5111993;28;20074;-51
2022/04/21 12:08:02;;;;;;;22.08;14.70;;;11.50;99.90;;;;;;5100567;28;20034;-52
2022/04/21 12:10:46;;;;;;;19.75;15.35;;;11.40;99.90;;;;;;5093394;28;20399;-49
2022/04/21 12:13:30;;;;;;;27.87;16.40;;;11.40;99.90;;;;;;5096722;28;20113;-52
2022/04/21 12:16:36;;;;;;;21.77;15.45;;;11.50;99.90;;;;;;5104481;28;20035;-52
2022/04/21 12:19:38;;;;;;;27.65;16.38;;;11.40;99.90;;;;;;5103887;28;20066;-55
2022/04/21 12:22:31;;;;;;;21.25;16.48;;;11.30;99.90;;;;;;5112891;28;20046;-54
2022/04/21 12:25:16;;;;;;;22.92;16.00;;;11.30;99.90;;;;;;5107040;28;20395;-54
2022/04/21 12:28:05;;;;;;;22.73;16.83;;;11.30;99.90;;;;;;5101817;28;20055;-55
2022/04/21 12:30:49;;;;;;;29.60;17.98;;;11.20;99.90;;;;;;5105584;28;20042;-52
2022/04/21 12:33:43;;;;;;;25.98;17.85;;;11.20;99.90;;;;;;5095196;28;20077;-53
2022/04/21 12:36:27;;;;;;;26.20;18.73;;;11.10;99.90;;;;;;5112714;28;20117;-55
2022/04/21 12:39:11;;;;;;;27.58;18.73;;;11.00;99.90;;;;;;5112695;28;20173;-51
2022/04/21 12:41:57;;;;;;;31.25;19.83;;;11.00;99.90;;;;;;5119231;27;20076;-53
2022/04/21 12:44:43;;;;;;;27.50;19.88;;;10.90;99.90;;;;;;5133161;27;20041;-50
2022/04/21 12:47:27;;;;;;;26.90;20.50;;;10.90;99.90;;;;;;5132652;27;20034;-49
2022/04/21 12:50:22;;;;;;;30.35;20.65;;;11.00;99.90;;;;;;5132215;27;20074;-51
2022/04/21 12:53:06;;;;;;;32.92;20.13;;;10.90;99.90;;;;;;5132428;27;20119;-55
2022/04/21 12:55:51;;;;;;;27.90;18.85;;;10.90;99.90;;;;;;5132094;27;20042;-51
2022/04/21 12:58:35;;;;;;;27.75;19.42;;;11.00;99.90;;;;;;5116907;28;20095;-49
2022/04/21 13:01:20;;;;;;;27.45;19.23;;;11.00;99.90;;;;;;5132464;28;20110;-51
2022/04/21 13:04:04;;;;;;;34.15;18.10;;;11.10;99.90;;;;;;5132803;28;20099;-51
2022/04/21 13:06:48;;;;;;;38.85;21.58;;;11.10;99.90;;;;;;5091964;28;20134;-50
2022/04/21 13:09:32;;;;;;;27.58;21.00;;;11.10;99.90;;;;;;5076386;28;20070;-52
2022/04/21 13:12:16;;;;;;;31.20;19.42;;;11.00;99.90;;;;;;5095717;28;20104;-51
2022/04/21 13:15:01;;;;;;;31.35;20.55;;;11.00;99.90;;;;;;5095186;28;20097;-55
2022/04/21 13:17:47;;;;;;;29.70;19.95;;;11.00;99.90;;;;;;5095441;28;20093;-49
2022/04/21 13:23:34;;;;;;;24.65;20.42;;;11.00;99.90;;;;;;5094936;28;19965;-50
2022/04/21 13:26:18;;;;;;;29.00;20.50;;;11.00;99.90;;;;;;5094886;27;20126;-49
2022/04/21 13:29:02;;;;;;;28.30;19.05;;;11.20;99.90;;;;;;5117094;27;20035;-48
2022/04/21 13:34:50;;;;;;;27.45;20.42;;;11.50;99.90;;;;;;5112594;28;20054;-49
2022/04/21 13:37:34;;;;;;;34.90;19.17;;;11.50;99.90;;;;;;5094911;28;20101;-50
2022/04/21 13:40:18;;;;;;;28.35;18.48;;;11.70;99.90;;;;;;5094827;28;20104;-54
2022/04/21 13:43:02;;;;;;;26.75;18.83;;;11.60;99.90;;;;;;5125484;27;20049;-52
2022/04/21 13:45:46;;;;;;;26.13;18.70;;;11.50;99.90;;;;;;5095680;28;20031;-53
2022/04/21 13:48:30;;;;;;;22.00;17.52;;;11.50;99.90;;;;;;5095342;28;20039;-51
2022/04/21 13:51:15;;;;;;;24.73;17.52;;;11.50;99.90;;;;;;5094423;28;20089;-56
2022/04/21 13:53:59;;;;;;;22.20;17.53;;;11.50;99.90;;;;;;5094819;28;20126;-51
2022/04/21 13:56:44;;;;;;;34.63;18.70;;;11.60;99.90;;;;;;5094246;28;20081;-48
2022/04/21 13:59:28;;;;;;;23.35;17.10;;;11.70;99.90;;;;;;5094548;28;20739;-55
2022/04/21 14:02:12;;;;;;;19.92;15.48;;;11.70;99.90;;;;;;5111924;28;20043;-52
2022/04/21 14:04:56;;;;;;;22.83;16.40;;;11.70;99.90;;;;;;5114960;28;20070;-51
2022/04/21 14:07:40;;;;;;;25.20;16.13;;;11.60;99.90;;;;;;5115011;28;20034;-54
2022/04/21 14:10:24;;;;;;;24.65;15.98;;;11.40;99.90;;;;;;5114787;28;20034;-49
2022/04/21 14:13:08;;;;;;;22.25;14.75;;;11.20;99.90;;;;;;5114678;28;20039;-51
2022/04/21 14:15:52;;;;;;;18.75;15.63;;;11.30;99.90;;;;;;5114406;28;20480;-50
2022/04/21 14:18:37;;;;;;;20.13;16.83;;;11.30;99.90;;;;;;5115276;28;20122;-49
2022/04/21 14:21:23;;;;;;;27.45;15.23;;;11.30;99.90;;;;;;5113844;28;20253;-54
2022/04/21 14:24:08;;;;;;;18.40;14.73;;;11.30;99.90;;;;;;5114543;28;20081;-54
2022/04/21 14:26:52;;;;;;;20.40;15.55;;;11.40;99.90;;;;;;5114392;28;20030;-50
2022/04/21 14:29:36;;;;;;;21.33;16.00;;;11.50;99.90;;;;;;5107592;28;20058;-54
2022/04/21 14:32:20;;;;;;;21.00;16.20;;;11.50;99.90;;;;;;5114364;28;20035;-51
2022/04/21 14:35:05;;;;;;;45.70;20.23;;;11.60;99.90;;;;;;5106898;28;20042;-53
2022/04/21 14:44:04;;;;;;;25.95;16.00;;;12.10;99.90;;;;;;5112974;28;20038;-54
2022/04/21 14:46:49;;;;;;;32.90;17.67;;;11.90;99.90;;;;;;5112401;28;20035;-55
2022/04/21 14:49:35;;;;;;;24.65;17.40;;;11.90;99.90;;;;;;5111530;28;20066;-51
2022/04/21 14:52:21;;;;;;;21.73;17.88;;;11.80;99.90;;;;;;5105034;28;20107;-52
2022/04/21 14:55:05;;;;;;;;;;;11.80;99.90;;;;;;5092726;28;20082;-50
2022/04/21 14:57:50;;;;;;;25.90;16.58;;;11.80;99.90;;;;;;5111326;28;20009;-50
2022/04/21 15:00:34;;;;;;;26.88;15.65;;;11.80;99.90;;;;;;5113320;28;20035;-51
2022/04/21 15:03:18;;;;;;;21.03;16.10;;;11.80;99.90;;;;;;5092642;28;20114;-57
2022/04/21 15:06:07;;;;;;;20.98;16.40;;;11.80;99.90;;;;;;5095769;28;21839;-54
2022/04/21 15:08:51;;;;;;;27.23;15.90;;;12.00;99.90;;;;;;5113672;28;20080;-53
2022/04/21 15:11:40;;;;;;;22.65;15.70;;;11.90;99.90;;;;;;5108517;28;20097;-49
2022/04/21 15:14:25;;;;;;;28.02;17.23;;;11.90;99.90;;;;;;5093706;28;20035;-54
2022/04/21 15:17:09;;;;;;;19.05;15.50;;;11.90;99.90;;;;;;5093112;28;20473;-48
2022/04/21 15:19:53;;;;;;;21.17;16.25;;;11.80;99.90;;;;;;5093809;28;20587;-54